Time,TemperatureF,DewpointF,PressureIn,WindDirection,WindDirectionDegrees,WindSpeedMPH,WindSpeedGustMPH,Humidity,HourlyPrecipIn,Conditions,Clouds,dailyrainin,SoftwareType,DateUTC
2013-06-14 00:15:00,54.9,54.0,29.63,West,274,16.0,23.0,96,0.03,,,0.02,weatherlink.com 1.10,2013-06-14 04:15:00,
2013-06-14 00:30:00,54.9,54.0,29.62,West,277,14.0,23.0,97,0.05,,,0.04,weatherlink.com 1.10,2013-06-14 04:30:00,
2013-06-14 00:45:00,54.6,54.0,29.62,WNW,285,21.0,22.0,97,0.07,,,0.06,weatherlink.com 1.10,2013-06-14 04:45:00,
2013-06-14 01:00:00,54.4,54.0,29.59,WNW,288,19.0,28.0,97,0.09,,,0.09,weatherlink.com 1.10,2013-06-14 05:00:00,
2013-06-14 01:15:00,54.2,53.0,29.58,West,269,13.0,27.0,97,0.08,,,0.10,weatherlink.com 1.10,2013-06-14 05:15:00,
2013-06-14 01:30:00,53.9,53.0,29.59,West,264,26.0,31.0,96,0.06,,,0.10,weatherlink.com 1.10,2013-06-14 05:30:00,
2013-06-14 01:45:00,53.6,53.0,29.59,West,280,17.0,28.0,96,0.05,,,0.11,weatherlink.com 1.10,2013-06-14 05:45:00,
2013-06-14 02:00:00,53.5,52.0,29.58,WNW,291,20.0,31.0,96,0.03,,,0.12,weatherlink.com 1.10,2013-06-14 06:00:00,
2013-06-14 02:15:00,53.4,53.0,29.57,WNW,285,25.0,31.0,98,0.03,,,0.13,weatherlink.com 1.10,2013-06-14 06:15:00,
2013-06-14 02:30:00,53.4,53.0,29.58,West,262,13.0,30.0,98,0.04,,,0.14,weatherlink.com 1.10,2013-06-14 06:30:00,
2013-06-14 02:45:00,53.2,53.0,29.59,West,276,19.0,27.0,98,0.04,,,0.15,weatherlink.com 1.10,2013-06-14 06:45:00,
2013-06-14 03:00:00,53.2,53.0,29.58,West,278,16.0,30.0,98,0.05,,,0.17,weatherlink.com 1.10,2013-06-14 07:00:00,
2013-06-14 03:15:00,53.4,53.0,29.58,West,278,13.0,30.0,98,0.06,,,0.19,weatherlink.com 1.10,2013-06-14 07:15:00,
2013-06-14 03:30:00,53.5,53.0,29.57,West,280,18.0,30.0,98,0.06,,,0.20,weatherlink.com 1.10,2013-06-14 07:30:00,
2013-06-14 03:45:00,53.5,53.0,29.56,West,267,18.0,30.0,98,0.05,,,0.20,weatherlink.com 1.10,2013-06-14 07:45:00,
2013-06-14 04:00:00,53.5,53.0,29.56,West,274,17.0,27.0,98,0.03,,,0.20,weatherlink.com 1.10,2013-06-14 08:00:00,
2013-06-14 04:15:00,53.4,53.0,29.56,WSW,238,17.0,31.0,98,0.01,,,0.20,weatherlink.com 1.10,2013-06-14 08:15:00,
2013-06-14 04:30:00,53.3,53.0,29.56,WSW,243,21.0,29.0,98,0.01,,,0.21,weatherlink.com 1.10,2013-06-14 08:30:00,
2013-06-14 04:45:00,53.0,53.0,29.57,West,269,14.0,30.0,98,0.04,,,0.24,weatherlink.com 1.10,2013-06-14 08:45:00,
2013-06-14 05:00:00,53.0,53.0,29.59,West,281,13.0,30.0,98,0.07,,,0.27,weatherlink.com 1.10,2013-06-14 09:00:00,
2013-06-14 05:15:00,52.9,52.0,29.58,West,275,13.0,28.0,98,0.09,,,0.29,weatherlink.com 1.10,2013-06-14 09:15:00,
2013-06-14 05:30:00,53.0,53.0,29.60,West,271,14.0,23.0,98,0.10,,,0.31,weatherlink.com 1.10,2013-06-14 09:30:00,
2013-06-14 05:45:00,53.0,53.0,29.60,WNW,283,19.0,23.0,98,0.09,,,0.33,weatherlink.com 1.10,2013-06-14 09:45:00,
2013-06-14 06:00:00,52.9,52.0,29.60,West,275,18.0,27.0,98,0.07,,,0.35,weatherlink.com 1.10,2013-06-14 10:00:00,
2013-06-14 06:15:00,52.7,52.0,29.60,West,276,21.0,27.0,98,0.07,,,0.36,weatherlink.com 1.10,2013-06-14 10:15:00,
2013-06-14 06:30:00,52.6,52.0,29.60,WNW,283,16.0,29.0,98,0.06,,,0.37,weatherlink.com 1.10,2013-06-14 10:30:00,
2013-06-14 06:45:00,52.4,52.0,29.60,West,269,20.0,30.0,98,0.04,,,0.37,weatherlink.com 1.10,2013-06-14 10:45:00,
2013-06-14 07:00:00,52.5,52.0,29.61,West,277,13.0,29.0,98,0.03,,,0.38,weatherlink.com 1.10,2013-06-14 11:00:00,
2013-06-14 07:15:00,52.6,52.0,29.59,WNW,285,22.0,35.0,98,0.03,,,0.39,weatherlink.com 1.10,2013-06-14 11:15:00,
2013-06-14 07:30:00,52.6,52.0,29.59,West,270,26.0,34.0,98,0.02,,,0.39,weatherlink.com 1.10,2013-06-14 11:30:00,
2013-06-14 07:45:00,52.5,52.0,29.61,WNW,285,18.0,32.0,98,0.02,,,0.39,weatherlink.com 1.10,2013-06-14 11:45:00,
2013-06-14 08:00:00,52.8,52.0,29.62,WNW,283,15.0,25.0,98,0.03,,,0.41,weatherlink.com 1.10,2013-06-14 12:00:00,
2013-06-14 08:15:00,52.5,52.0,29.62,West,277,21.0,33.0,98,0.03,,,0.42,weatherlink.com 1.10,2013-06-14 12:15:00,
2013-06-14 08:30:00,52.6,52.0,29.64,WSW,246,28.0,34.0,98,0.04,,,0.43,weatherlink.com 1.10,2013-06-14 12:30:00,
2013-06-14 08:45:00,52.4,52.0,29.64,WNW,290,15.0,30.0,98,0.04,,,0.43,weatherlink.com 1.10,2013-06-14 12:45:00,
2013-06-14 09:00:00,52.1,52.0,29.64,West,273,23.0,34.0,98,0.02,,,0.43,weatherlink.com 1.10,2013-06-14 13:00:00,
2013-06-14 09:15:00,52.1,52.0,29.63,West,267,16.0,30.0,98,0.01,,,0.43,weatherlink.com 1.10,2013-06-14 13:15:00,
2013-06-14 09:30:00,52.1,52.0,29.63,WSW,258,21.0,33.0,98,0.00,,,0.43,weatherlink.com 1.10,2013-06-14 13:30:00,
2013-06-14 09:46:00,52.4,52.0,29.63,WNW,292,26.0,33.0,97,0.00,,,0.43,weatherlink.com 1.10,2013-06-14 13:46:00,
2013-06-14 10:01:00,53.2,52.0,29.63,WNW,287,21.0,30.0,97,0.00,,,0.43,weatherlink.com 1.10,2013-06-14 14:01:00,
2013-06-14 10:16:00,53.7,53.0,29.63,WSW,252,15.0,28.0,98,0.00,,,0.43,weatherlink.com 1.10,2013-06-14 14:16:00,
2013-06-14 10:31:00,54.7,53.0,29.64,WSW,245,24.0,27.0,94,0.00,,,0.43,weatherlink.com 1.10,2013-06-14 14:31:00,
2013-06-14 10:46:00,55.4,53.0,29.64,West,262,12.0,29.0,91,0.00,,,0.43,weatherlink.com 1.10,2013-06-14 14:46:00,
2013-06-14 11:01:00,55.9,53.0,29.64,West,262,24.0,26.0,89,0.00,,,0.43,weatherlink.com 1.10,2013-06-14 15:01:00,
2013-06-14 11:16:00,56.7,53.0,29.64,West,271,19.0,28.0,87,0.00,,,0.43,weatherlink.com 1.10,2013-06-14 15:16:00,
2013-06-14 11:31:00,57.0,53.0,29.64,West,263,15.0,30.0,86,0.00,,,0.43,weatherlink.com 1.10,2013-06-14 15:31:00,
2013-06-14 11:46:00,57.1,53.0,29.65,WSW,255,17.0,28.0,86,0.00,,,0.43,weatherlink.com 1.10,2013-06-14 15:46:00,
2013-06-14 12:01:00,57.0,53.0,29.65,WSW,256,15.0,26.0,87,0.00,,,0.43,weatherlink.com 1.10,2013-06-14 16:01:00,
2013-06-14 12:31:00,57.4,53.0,29.65,WSW,248,16.0,27.0,85,0.00,,,0.43,weatherlink.com 1.10,2013-06-14 16:31:00,
2013-06-14 12:46:00,57.0,53.0,29.66,West,259,16.0,24.0,86,0.00,,,0.43,weatherlink.com 1.10,2013-06-14 16:46:00,
2013-06-14 13:01:00,57.0,55.0,29.67,WSW,245,12.0,21.0,91,0.00,,,0.43,weatherlink.com 1.10,2013-06-14 17:01:00,
2013-06-14 13:16:00,57.2,54.0,29.68,WSW,253,23.0,25.0,89,0.00,,,0.43,weatherlink.com 1.10,2013-06-14 17:16:00,
2013-06-14 13:31:00,57.6,54.0,29.68,WSW,246,19.0,28.0,88,0.00,,,0.43,weatherlink.com 1.10,2013-06-14 17:31:00,
2013-06-14 13:46:00,57.5,54.0,29.68,West,264,22.0,27.0,88,0.00,,,0.43,weatherlink.com 1.10,2013-06-14 17:46:00,
2013-06-14 14:01:00,57.7,54.0,29.67,WSW,245,27.0,28.0,88,0.00,,,0.43,weatherlink.com 1.10,2013-06-14 18:01:00,
2013-06-14 14:16:00,58.8,54.0,29.67,WSW,248,19.0,29.0,85,0.00,,,0.43,weatherlink.com 1.10,2013-06-14 18:16:00,
2013-06-14 14:31:00,59.6,54.0,29.67,WSW,255,20.0,25.0,81,0.00,,,0.43,weatherlink.com 1.10,2013-06-14 18:31:00,
2013-06-14 14:46:00,59.5,53.0,29.68,West,264,16.0,25.0,78,0.00,,,0.43,weatherlink.com 1.10,2013-06-14 18:46:00,
2013-06-14 15:01:00,59.6,53.0,29.68,SW,231,18.0,26.0,80,0.00,,,0.43,weatherlink.com 1.10,2013-06-14 19:01:00,
2013-06-14 15:16:00,58.9,53.0,29.68,WSW,239,21.0,22.0,80,0.00,,,0.43,weatherlink.com 1.10,2013-06-14 19:16:00,
2013-06-14 15:31:00,58.4,53.0,29.69,WSW,248,15.0,21.0,83,0.00,,,0.43,weatherlink.com 1.10,2013-06-14 19:31:00,
2013-06-14 15:46:00,58.5,53.0,29.69,WSW,253,17.0,19.0,83,0.00,,,0.43,weatherlink.com 1.10,2013-06-14 19:46:00,
2013-06-14 16:01:00,58.7,54.0,29.69,WSW,243,13.0,18.0,83,0.00,,,0.43,weatherlink.com 1.10,2013-06-14 20:01:00,
2013-06-14 16:16:00,58.7,53.0,29.69,WSW,257,11.0,17.0,81,0.00,,,0.43,weatherlink.com 1.10,2013-06-14 20:16:00,
2013-06-14 16:31:00,58.7,53.0,29.69,West,264,8.0,15.0,82,0.00,,,0.43,weatherlink.com 1.10,2013-06-14 20:31:00,
2013-06-14 16:46:00,58.7,53.0,29.69,West,260,8.0,13.0,81,0.00,,,0.43,weatherlink.com 1.10,2013-06-14 20:46:00,
2013-06-14 17:01:00,59.0,53.0,29.69,WSW,243,6.0,10.0,81,0.00,,,0.43,weatherlink.com 1.10,2013-06-14 21:01:00,
2013-06-14 17:16:00,59.9,54.0,29.70,WSW,255,7.0,10.0,80,0.00,,,0.43,weatherlink.com 1.10,2013-06-14 21:16:00,
2013-06-14 17:31:00,60.1,53.0,29.70,WNW,291,4.0,8.0,78,0.00,,,0.43,weatherlink.com 1.10,2013-06-14 21:31:00,
2013-06-14 17:46:00,60.2,54.0,29.70,West,277,3.0,7.0,79,0.00,,,0.43,weatherlink.com 1.10,2013-06-14 21:46:00,
2013-06-14 18:01:00,60.5,54.0,29.70,WSW,257,1.0,5.0,79,0.00,,,0.43,weatherlink.com 1.10,2013-06-14 22:01:00,
2013-06-14 18:16:00,61.3,55.0,29.70,WSW,240,0.0,3.0,80,0.00,,,0.43,weatherlink.com 1.10,2013-06-14 22:16:00,
2013-06-14 18:31:00,61.4,55.0,29.70,ESE,105,0.0,3.0,79,0.00,,,0.43,weatherlink.com 1.10,2013-06-14 22:31:00,
2013-06-14 18:46:00,62.4,55.0,29.70,SE,127,4.0,6.0,77,0.00,,,0.43,weatherlink.com 1.10,2013-06-14 22:46:00,
2013-06-14 19:01:00,63.5,55.0,29.70,SE,136,5.0,6.0,74,0.00,,,0.43,weatherlink.com 1.10,2013-06-14 23:01:00,
2013-06-14 19:16:00,63.4,53.0,29.70,SE,132,1.0,4.0,70,0.00,,,0.43,weatherlink.com 1.10,2013-06-14 23:16:00,
2013-06-14 19:33:00,62.9,54.0,29.70,ESE,112,1.0,3.0,73,0.00,,,0.43,weatherlink.com 1.10,2013-06-14 23:33:00,
2013-06-14 19:47:00,61.3,54.0,29.71,ESE,104,6.0,7.0,78,0.00,,,0.43,weatherlink.com 1.10,2013-06-14 23:47:00,
2013-06-14 20:02:00,59.5,53.0,29.71,ENE,75,4.0,6.0,80,0.00,,,0.43,weatherlink.com 1.10,2013-06-15 00:02:00,
2013-06-14 20:17:00,58.6,54.0,29.72,East,93,2.0,6.0,84,0.00,,,0.43,weatherlink.com 1.10,2013-06-15 00:17:00,
2013-06-14 20:32:00,58.3,54.0,29.72,East,95,3.0,4.0,86,0.00,,,0.43,weatherlink.com 1.10,2013-06-15 00:32:00,
2013-06-14 20:47:00,58.5,55.0,29.72,East,84,1.0,3.0,88,0.00,,,0.43,weatherlink.com 1.10,2013-06-15 00:47:00,
2013-06-14 21:02:00,58.2,55.0,29.73,East,83,2.0,3.0,88,0.00,,,0.43,weatherlink.com 1.10,2013-06-15 01:02:00,
2013-06-14 21:17:00,58.1,55.0,29.73,East,83,2.0,3.0,89,0.00,,,0.43,weatherlink.com 1.10,2013-06-15 01:17:00,
2013-06-14 21:32:00,58.0,55.0,29.74,ENE,74,3.0,3.0,88,0.00,,,0.43,weatherlink.com 1.10,2013-06-15 01:32:00,
2013-06-14 21:47:00,58.3,54.0,29.74,East,86,1.0,4.0,86,0.00,,,0.43,weatherlink.com 1.10,2013-06-15 01:47:00,
2013-06-14 22:02:00,58.1,54.0,29.74,ENE,70,3.0,5.0,87,0.00,,,0.43,weatherlink.com 1.10,2013-06-15 02:02:00,
2013-06-14 22:17:00,58.6,55.0,29.74,East,88,3.0,6.0,87,0.00,,,0.43,weatherlink.com 1.10,2013-06-15 02:17:00,
2013-06-14 22:32:00,58.3,55.0,29.73,East,79,2.0,4.0,87,0.00,,,0.43,weatherlink.com 1.10,2013-06-15 02:32:00,
2013-06-14 22:47:00,56.9,54.0,29.73,West,269,0.0,1.0,89,0.00,,,0.43,weatherlink.com 1.10,2013-06-15 02:47:00,
2013-06-14 23:02:00,56.1,54.0,29.73,NNE,29,0.0,1.0,91,0.00,,,0.43,weatherlink.com 1.10,2013-06-15 03:02:00,
2013-06-14 23:17:00,56.9,54.0,29.73,East,80,0.0,3.0,91,0.00,,,0.43,weatherlink.com 1.10,2013-06-15 03:17:00,
2013-06-14 23:32:00,56.7,54.0,29.73,ENE,76,0.0,1.0,90,0.00,,,0.43,weatherlink.com 1.10,2013-06-15 03:32:00,
2013-06-14 23:47:00,56.0,54.0,29.74,WNW,298,1.0,1.0,92,0.00,,,0.43,weatherlink.com 1.10,2013-06-15 03:47:00,